Time;durP1;ratioP1;P1;durP2;ratioP2;P2;SDS_P1;SDS_P2;PMS_P1;PMS_P2;Temp;Humidity;BMP_temperature;BMP_pressure;BME280_temperature;BME280_humidity;BME280_pressure;Samples;Min_cycle;Max_cycle;Signal;HPM_P1;HPM_P2
2022/04/12 00:01:19;;;;;;;3.1;1.8;;;;;;;5.94;74.3418;936.4196;;;;
2022/04/12 00:03:43;;;;;;;2.8;1.6;;;;;;;5.91;74.22266;936.3769;;;;
2022/04/12 00:06:09;;;;;;;2.8;1.9;;;;;;;5.79;75.02637;936.3725;;;;
2022/04/12 00:08:35;;;;;;;2;1.6;;;;;;;5.81;74.92773;936.3995;;;;
2022/04/12 00:11:02;;;;;;;2.4;2;;;;;;;5.78;75.125;936.378;;;;
2022/04/12 00:13:27;;;;;;;3.3;2;;;;;;;5.68;75.27832;936.2871;;;;
2022/04/12 00:15:53;;;;;;;3.3;1.8;;;;;;;5.52;75.9043;936.3326;;;;
2022/04/12 00:20:43;;;;;;;3.6;1.9;;;;;;;5.49;76.10254;936.3469;;;;
2022/04/12 00:23:10;;;;;;;3.1;2.3;;;;;;;5.47;76.24512;936.2572;;;;
2022/04/12 00:25:36;;;;;;;2.1;1.7;;;;;;;5.46;76.22168;936.2806;;;;
2022/04/12 00:28:01;;;;;;;6.3;2.4;;;;;;;5.49;76.17969;936.3136;;;;
2022/04/12 00:30:31;;;;;;;2.8;2.1;;;;;;;5.42;76.4043;936.2946;;;;
2022/04/12 00:32:56;;;;;;;2.7;1.9;;;;;;;5.43;76.37402;936.2087;;;;
2022/04/12 00:35:28;;;;;;;2.5;1.8;;;;;;;5.41;76.37988;936.2776;;;;
2022/04/12 00:39:04;;;;;;;3.3;1.9;;;;;;;5.29;76.92285;936.294;;;;
2022/04/12 00:41:35;;;;;;;2.3;1.5;;;;;;;5.19;77.29004;936.2203;;;;
2022/04/12 00:43:54;;;;;;;2.7;1.5;;;;;;;5.14;77.57324;936.1858;;;;
2022/04/12 00:46:19;;;;;;;1.7;1.6;;;;;;;5.24;77.24219;936.1508;;;;
2022/04/12 00:48:48;;;;;;;3.2;1.5;;;;;;;5.39;76.59082;936.1309;;;;
2022/04/12 00:51:17;;;;;;;2;1.4;;;;;;;5.38;76.3877;936.0675;;;;
2022/04/12 00:53:42;;;;;;;3;1.8;;;;;;;5.33;76.37793;936.0322;;;;
2022/04/12 00:56:09;;;;;;;3.2;1.6;;;;;;;5.31;76.52148;935.9836;;;;
2022/04/12 00:58:34;;;;;;;2.3;1.5;;;;;;;5.33;77.15723;936.0472;;;;
2022/04/12 01:01:02;;;;;;;2;1.3;;;;;;;5.33;76.81836;935.9927;;;;
2022/04/12 01:12:09;;;;;;;4.9;2.6;;;;;;;5.19;77.25488;935.9724;;;;
2022/04/12 01:14:32;;;;;;;4.9;2.6;;;;;;;5.15;77.38379;936.0281;;;;
2022/04/12 01:17:00;;;;;;;3.5;2;;;;;;;5.11;77.28711;936.024;;;;
2022/04/12 01:19:25;;;;;;;3.1;2;;;;;;;5.17;77.17285;936.035;;;;
2022/04/12 01:21:55;;;;;;;3.8;2.2;;;;;;;5.23;76.5752;936.0375;;;;
2022/04/12 01:24:20;;;;;;;3.8;2.2;;;;;;;5.26;76.32031;936.051;;;;
2022/04/12 01:26:47;;;;;;;4.6;2.4;;;;;;;5.3;76.27051;935.9983;;;;
2022/04/12 01:32:17;;;;;;;4.7;2.1;;;;;;;5.35;75.96387;935.8685;;;;
2022/04/12 01:34:45;;;;;;;3;1.6;;;;;;;5.38;75.95898;935.9246;;;;
2022/04/12 01:37:11;;;;;;;3.2;2.3;;;;;;;5.42;75.63867;935.8555;;;;
2022/04/12 01:39:38;;;;;;;3.6;2.3;;;;;;;5.42;75.36816;935.9362;;;;
2022/04/12 01:42:03;;;;;;;4.9;1.8;;;;;;;5.44;75.13379;935.9144;;;;
2022/04/12 01:44:33;;;;;;;1.9;1.5;;;;;;;5.38;75.46289;935.8828;;;;
2022/04/12 01:47:03;;;;;;;2.8;1.7;;;;;;;5.26;75.93652;935.9048;;;;
2022/04/12 01:49:28;;;;;;;2.6;1.5;;;;;;;4.96;77.19141;935.8928;;;;
2022/04/12 01:51:56;;;;;;;4.6;1.7;;;;;;;4.83;78.0791;935.9105;;;;
2022/04/12 01:54:21;;;;;;;2.6;1.7;;;;;;;4.85;78.0957;935.9088;;;;
2022/04/12 01:56:48;;;;;;;3.2;1.7;;;;;;;4.75;78.44922;935.871;;;;
2022/04/12 01:59:13;;;;;;;2.6;1.6;;;;;;;4.69;78.74023;935.8922;;;;
2022/04/12 02:01:40;;;;;;;3.4;1.6;;;;;;;4.68;78.94238;936.0276;;;;
2022/04/12 02:04:05;;;;;;;2;1.5;;;;;;;4.71;78.90234;936.0126;;;;
2022/04/12 02:06:31;;;;;;;1.9;1.5;;;;;;;4.75;78.20117;935.9144;;;;
2022/04/12 02:08:57;;;;;;;2.5;1.6;;;;;;;4.73;78.17578;935.9558;;;;
2022/04/12 02:11:22;;;;;;;2.5;1.9;;;;;;;4.72;78.12891;935.9792;;;;
2022/04/12 02:13:51;;;;;;;2;1.7;;;;;;;4.76;78.07715;935.973;;;;
2022/04/12 02:16:23;;;;;;;3.2;1.7;;;;;;;4.73;78.28613;935.8997;;;;
2022/04/12 02:18:51;;;;;;;2.5;1.6;;;;;;;4.74;78.1416;936.0134;;;;
2022/04/12 02:21:17;;;;;;;1.7;1.6;;;;;;;4.82;77.05273;935.9924;;;;
2022/04/12 02:23:42;;;;;;;2;1.6;;;;;;;4.99;76.14941;935.9394;;;;
2022/04/12 02:26:09;;;;;;;2.4;1.7;;;;;;;5.19;75.27148;935.8619;;;;
2022/04/12 02:28:34;;;;;;;3.3;1.5;;;;;;;5.25;74.83008;935.8747;;;;
2022/04/12 02:31:02;;;;;;;6;1.8;;;;;;;5.21;75.03613;935.8951;;;;
2022/04/12 02:33:27;;;;;;;3.6;2.1;;;;;;;5.23;75.28906;935.9208;;;;
2022/04/12 02:35:57;;;;;;;4.7;2.1;;;;;;;5.23;75.44727;935.957;;;;
2022/04/12 02:38:27;;;;;;;4.4;2.1;;;;;;;5.2;75.51953;935.9213;;;;
2022/04/12 02:40:52;;;;;;;4.1;2.1;;;;;;;5.1;75.77441;935.9717;;;;
2022/04/12 02:43:17;;;;;;;2.5;1.6;;;;;;;5.07;75.94629;935.9194;;;;
2022/04/12 02:45:45;;;;;;;3.5;1.7;;;;;;;5.01;76.21875;935.9764;;;;
2022/04/12 02:48:11;;;;;;;4.3;2.1;;;;;;;4.95;76.47949;935.902;;;;
2022/04/12 02:50:34;;;;;;;2.9;1.9;;;;;;;4.85;77.01367;935.9877;;;;
2022/04/12 02:53:04;;;;;;;3.2;2.5;;;;;;;4.83;77.14453;935.9083;;;;
2022/04/12 02:55:34;;;;;;;4.4;2.6;;;;;;;4.83;77.21191;935.9034;;;;
2022/04/12 02:57:58;;;;;;;2;1.3;;;;;;;4.89;74.54102;935.8781;;;;
2022/04/12 03:00:28;;;;;;;2.8;1.7;;;;;;;4.87;76.67871;935.8524;;;;
2022/04/12 03:02:53;;;;;;;2.9;1.7;;;;;;;4.79;77.09082;935.9003;;;;
2022/04/12 03:05:21;;;;;;;3.3;1.6;;;;;;;4.73;76.20313;935.8461;;;;
2022/04/12 03:07:46;;;;;;;3.5;1.5;;;;;;;4.95;74.32715;935.8783;;;;
2022/04/12 03:10:15;;;;;;;3.2;1.6;;;;;;;5.17;73.70117;935.743;;;;
2022/04/12 03:12:43;;;;;;;2;1.6;;;;;;;5.3;72.93164;935.8293;;;;
2022/04/12 03:15:09;;;;;;;2.7;1.5;;;;;;;5.26;72.95898;935.74;;;;
2022/04/12 03:17:35;;;;;;;3.8;2.4;;;;;;;5.22;73.33496;935.858;;;;
2022/04/12 03:20:04;;;;;;;4.4;2.4;;;;;;;4.91;75.15332;935.9031;;;;
2022/04/12 03:22:32;;;;;;;5.1;2.7;;;;;;;4.67;76.77832;935.8909;;;;
2022/04/12 03:25:01;;;;;;;5.2;2.7;;;;;;;4.6;77.29492;935.8935;;;;
2022/04/12 03:27:25;;;;;;;4.4;2.3;;;;;;;4.74;76.4541;935.8873;;;;
2022/04/12 03:29:53;;;;;;;3.4;2.1;;;;;;;4.89;75.70215;935.9247;;;;
2022/04/12 03:32:18;;;;;;;1.7;1.6;;;;;;;4.87;75.65332;935.8895;;;;
2022/04/12 03:34:50;;;;;;;3.5;1.9;;;;;;;4.81;75.91309;935.895;;;;
2022/04/12 03:37:14;;;;;;;6;2.8;;;;;;;4.69;76.29785;935.9325;;;;
2022/04/12 03:39:38;;;;;;;4.5;2.9;;;;;;;4.59;76.78809;935.9288;;;;
2022/04/12 03:42:04;;;;;;;8.5;3.8;;;;;;;4.44;77.41211;935.9606;;;;
2022/04/12 03:44:28;;;;;;;4;2.5;;;;;;;4.4;77.77637;935.9511;;;;
2022/04/12 03:47:00;;;;;;;7.5;2.9;;;;;;;4.38;78.06445;936.0083;;;;
2022/04/12 04:02:31;;;;;;;4.7;2.5;;;;;;;4.15;78.96777;936.0147;;;;
2022/04/12 04:04:56;;;;;;;9.1;2.8;;;;;;;4.08;79.40625;935.9869;;;;
2022/04/12 04:07:23;;;;;;;2.5;1.7;;;;;;;4.01;79.75293;935.9294;;;;
2022/04/12 04:09:46;;;;;;;3;1.9;;;;;;;4.03;79.74512;935.9356;;;;
2022/04/12 04:12:11;;;;;;;2.7;1.9;;;;;;;3.97;79.82324;935.9279;;;;
2022/04/12 04:14:42;;;;;;;5.3;2.2;;;;;;;3.95;79.83105;935.91;;;;
2022/04/12 04:17:03;;;;;;;3.4;1.8;;;;;;;3.93;79.8252;935.9094;;;;
2022/04/12 04:19:32;;;;;;;5.5;2.4;;;;;;;3.93;79.98438;935.9136;;;;
2022/04/12 04:21:57;;;;;;;3.6;1.9;;;;;;;3.87;80.36621;935.817;;;;
2022/04/12 04:24:25;;;;;;;2.8;2;;;;;;;3.87;80.40039;935.8769;;;;
2022/04/12 04:26:55;;;;;;;9.2;3.5;;;;;;;3.79;80.67676;935.8743;;;;
2022/04/12 04:29:16;;;;;;;7.7;3.5;;;;;;;3.81;80.55664;935.872;;;;
2022/04/12 04:31:43;;;;;;;6.1;3.1;;;;;;;3.89;80.08887;935.8878;;;;
2022/04/12 04:34:09;;;;;;;4.9;3;;;;;;;3.89;79.91992;935.8633;;;;
2022/04/12 04:36:39;;;;;;;5.1;3.2;;;;;;;3.93;79.55762;935.9118;;;;
2022/04/12 04:39:09;;;;;;;7.1;3.7;;;;;;;3.95;79.42578;935.9275;;;;
2022/04/12 04:41:40;;;;;;;4.2;3.2;;;;;;;3.91;79.30664;935.9507;;;;
2022/04/12 04:44:05;;;;;;;4;2.6;;;;;;;3.81;79.96289;935.9359;;;;
2022/04/12 04:46:34;;;;;;;9.9;2.9;;;;;;;3.71;80.49316;935.9009;;;;
2022/04/12 04:49:14;;;;;;;5;3;;;;;;;3.64;80.64746;935.9247;;;;
2022/04/12 04:51:46;;;;;;;5.7;3;;;;;;;3.66;80.66406;935.8947;;;;
2022/04/12 04:54:16;;;;;;;7.4;3.3;;;;;;;3.81;80.08496;935.9114;;;;
2022/04/12 04:56:41;;;;;;;10.6;4.1;;;;;;;3.86;79.67871;935.965;;;;
2022/04/12 04:59:13;;;;;;;9.2;4.1;;;;;;;3.93;79.29883;936.0182;;;;
2022/04/12 05:01:37;;;;;;;8.6;3.9;;;;;;;3.9;79.10059;935.884;;;;
2022/04/12 05:04:06;;;;;;;13.4;6.9;;;;;;;3.91;79.01465;935.9978;;;;
2022/04/12 05:06:37;;;;;;;6.7;4;;;;;;;3.96;78.98926;935.9766;;;;
2022/04/12 05:09:11;;;;;;;5.6;3;;;;;;;4.01;78.83008;936.01;;;;
2022/04/12 05:11:42;;;;;;;5.8;2.7;;;;;;;3.94;78.62598;936.073;;;;
2022/04/12 05:14:09;;;;;;;6.4;2.9;;;;;;;3.96;79.08984;936.0641;;;;
2022/04/12 05:16:38;;;;;;;6.9;3.9;;;;;;;3.99;79.17383;936.0421;;;;
2022/04/12 05:19:08;;;;;;;6.5;4.1;;;;;;;4.07;78.90625;936.1021;;;;
2022/04/12 05:21:34;;;;;;;6;3.4;;;;;;;4.17;78.03711;936.109;;;;
2022/04/12 05:24:01;;;;;;;4.9;3.4;;;;;;;4.15;78.32715;936.0069;;;;
2022/04/12 05:26:26;;;;;;;4.1;3.1;;;;;;;4.3;77.8584;936.0461;;;;
2022/04/12 05:28:53;;;;;;;5.4;2.7;;;;;;;4.41;76.37305;936.1058;;;;
2022/04/12 05:31:21;;;;;;;7.6;3.7;;;;;;;4.51;77.10938;936.0708;;;;
2022/04/12 05:33:49;;;;;;;7.4;3.2;;;;;;;4.74;74.37988;936.0608;;;;
2022/04/12 05:36:14;;;;;;;7.7;3.6;;;;;;;4.88;74.55078;936.0594;;;;
2022/04/12 05:38:42;;;;;;;5.1;3;;;;;;;5.09;74;936.1472;;;;
2022/04/12 05:41:13;;;;;;;4.9;2.5;;;;;;;6.06;71.37891;936.0954;;;;
2022/04/12 05:43:38;;;;;;;5.4;2.7;;;;;;;7.19;67.71582;936.0424;;;;
2022/04/12 05:46:07;;;;;;;5;2.4;;;;;;;8.66;61.68262;936.0496;;;;
2022/04/12 05:48:37;;;;;;;5.7;2.6;;;;;;;9.57;57.43848;935.9338;;;;
2022/04/12 05:51:02;;;;;;;5.2;2.7;;;;;;;9.88;55.41602;935.9394;;;;
2022/04/12 05:53:31;;;;;;;5.1;2.9;;;;;;;10.72;50.49902;935.8865;;;;
2022/04/12 05:56:01;;;;;;;6.1;2;;;;;;;11.32;50.43164;935.9263;;;;
2022/04/12 05:58:27;;;;;;;3.9;1.6;;;;;;;11.21;48.38281;935.9824;;;;
2022/04/12 06:00:51;;;;;;;5.1;2.4;;;;;;;11.06;47.67969;935.938;;;;
2022/04/12 06:03:20;;;;;;;6.9;3.2;;;;;;;11.18;48.16211;935.9216;;;;
2022/04/12 06:05:51;;;;;;;8.7;3.1;;;;;;;10.99;49.86719;935.9191;;;;
2022/04/12 06:21:48;;;;;;;8.5;2.9;;;;;;;14.02;44.50781;935.8666;;;;
2022/04/12 06:24:16;;;;;;;3.3;2;;;;;;;13.85;43.41992;935.8997;;;;
2022/04/12 06:26:40;;;;;;;4.2;2.4;;;;;;;13.5;43.77637;935.9141;;;;
2022/04/12 06:29:07;;;;;;;3.4;2.5;;;;;;;15.45;40.76172;935.8574;;;;
2022/04/12 06:31:32;;;;;;;4.5;3.3;;;;;;;16.27;38.99902;935.8226;;;;
2022/04/12 06:34:02;;;;;;;4.9;1.6;;;;;;;15.6;38.71973;935.8042;;;;
2022/04/12 06:36:33;;;;;;;4;1.6;;;;;;;17.31;35.27637;935.7658;;;;
2022/04/12 06:39:04;;;;;;;4.2;1.6;;;;;;;17.02;35.1377;935.7406;;;;
2022/04/12 06:41:34;;;;;;;2.5;1.4;;;;;;;17.05;35.47559;935.728;;;;
2022/04/12 06:44:04;;;;;;;3.1;2.3;;;;;;;17.21;36.04492;935.7281;;;;
2022/04/12 06:46:29;;;;;;;3.1;2.1;;;;;;;18.55;34.64355;935.7153;;;;
2022/04/12 06:49:00;;;;;;;9.3;3.4;;;;;;;20.04;31.39941;935.7054;;;;
2022/04/12 06:51:30;;;;;;;4.5;2.7;;;;;;;18.05;33.02344;935.7397;;;;
2022/04/12 06:54:00;;;;;;;3.3;1.8;;;;;;;17.16;32.70215;935.684;;;;
2022/04/12 06:56:27;;;;;;;2.9;1.7;;;;;;;18.49;30.5459;935.6523;;;;
2022/04/12 06:58:50;;;;;;;4.7;1.5;;;;;;;16.98;32.46875;935.6872;;;;
2022/04/12 07:01:18;;;;;;;2.9;2.2;;;;;;;17.66;32.77441;935.6348;;;;
2022/04/12 07:03:44;;;;;;;2.4;1.3;;;;;;;19.79;29.08398;935.5646;;;;
2022/04/12 07:06:12;;;;;;;2.6;1.2;;;;;;;18.52;30.30273;935.5669;;;;
2022/04/12 07:08:38;;;;;;;3;1.5;;;;;;;19.71;29.02051;935.5095;;;;
2022/04/12 07:11:05;;;;;;;2.7;1.4;;;;;;;20.26;28.60156;935.4796;;;;
2022/04/12 07:13:30;;;;;;;4.4;1.7;;;;;;;19.97;29.83203;935.4686;;;;
2022/04/12 07:16:02;;;;;;;1.9;1.1;;;;;;;20.05;29.97656;935.4052;;;;
2022/04/12 07:18:34;;;;;;;1.4;1.2;;;;;;;21.87;29.70215;935.4689;;;;
2022/04/12 07:21:01;;;;;;;3.2;1;;;;;;;22.4;29.62012;935.4619;;;;
2022/04/12 07:23:26;;;;;;;1.5;1.1;;;;;;;23.56;27.19238;935.3103;;;;
2022/04/12 07:25:56;;;;;;;2.3;1.2;;;;;;;22.83;27.85156;935.3578;;;;
2022/04/12 07:28:25;;;;;;;1.7;1.1;;;;;;;22.74;26.05078;935.4256;;;;
2022/04/12 07:30:50;;;;;;;2.3;1.2;;;;;;;22.56;25.92188;935.3666;;;;
2022/04/12 07:33:21;;;;;;;2.8;1.2;;;;;;;23.06;26.63379;935.3153;;;;
2022/04/12 07:35:46;;;;;;;1.8;1.2;;;;;;;21.54;26.92871;935.2986;;;;
2022/04/12 07:38:14;;;;;;;2.5;1.4;;;;;;;20.93;27.41699;935.2875;;;;
2022/04/12 07:40:39;;;;;;;2;1.1;;;;;;;21.24;26.41895;935.2852;;;;
2022/04/12 07:43:07;;;;;;;0.9;0.9;;;;;;;23.13;24.28809;935.162;;;;
2022/04/12 07:45:33;;;;;;;4;1.5;;;;;;;21.03;26.14941;935.1642;;;;
2022/04/12 07:48:03;;;;;;;2;1.3;;;;;;;21.92;25.63867;935.1794;;;;
2022/04/12 07:50:35;;;;;;;2.1;1.4;;;;;;;20.42;26.54492;935.2014;;;;
2022/04/12 07:53:07;;;;;;;1.4;1.1;;;;;;;20.33;26.00293;935.1675;;;;
2022/04/12 07:55:39;;;;;;;2.3;1.1;;;;;;;22.56;25.07715;935.0499;;;;
2022/04/12 07:58:09;;;;;;;1.5;1;;;;;;;23.3;24.94336;935.0119;;;;
2022/04/12 08:00:34;;;;;;;2.4;1.1;;;;;;;23.68;23.36426;934.9631;;;;
2022/04/12 08:03:07;;;;;;;37.8;6.3;;;;;;;24.03;23.48828;934.9641;;;;
2022/04/12 08:05:33;;;;;;;3.2;1.4;;;;;;;25.5;22.125;934.9984;;;;
2022/04/12 08:07:57;;;;;;;2.5;1.5;;;;;;;25.32;21.96191;934.9626;;;;
2022/04/12 08:10:29;;;;;;;2.5;1;;;;;;;27;22.15137;934.9433;;;;
2022/04/12 08:12:57;;;;;;;1.2;1;;;;;;;26.83;22.51074;934.9194;;;;
2022/04/12 08:15:22;;;;;;;3.4;1.8;;;;;;;25.47;21.08398;934.9164;;;;
2022/04/12 08:17:47;;;;;;;1.1;1;;;;;;;27.28;20.04297;934.8758;;;;
2022/04/12 08:20:15;;;;;;;1.2;0.9;;;;;;;27.97;19.83594;934.8729;;;;
2022/04/12 08:22:45;;;;;;;1.5;1;;;;;;;24.74;22.77148;934.896;;;;
2022/04/12 08:25:18;;;;;;;11.9;2.1;;;;;;;26.66;20.15723;934.8563;;;;
2022/04/12 08:27:50;;;;;;;3;1.2;;;;;;;26.3;19.91602;934.889;;;;
2022/04/12 08:30:24;;;;;;;0.9;0.9;;;;;;;28.21;19.01465;934.8162;;;;
2022/04/12 08:32:54;;;;;;;2.7;1.2;;;;;;;24.74;20.93164;934.8334;;;;
2022/04/12 08:35:25;;;;;;;1.7;1;;;;;;;26.13;20.02637;934.8155;;;;
2022/04/12 08:37:53;;;;;;;2.6;0.8;;;;;;;28.93;19.97363;934.7852;;;;
2022/04/12 08:40:25;;;;;;;1.9;0.8;;;;;;;26.87;18.0332;934.7473;;;;
2022/04/12 08:42:50;;;;;;;1.1;1;;;;;;;26.89;18.66211;934.7378;;;;
2022/04/12 08:45:24;;;;;;;0.8;0.8;;;;;;;27.02;19.94727;934.7028;;;;
2022/04/12 08:47:49;;;;;;;1.6;1;;;;;;;28.14;18.45313;934.6588;;;;
2022/04/12 08:50:14;;;;;;;7.5;1.6;;;;;;;27.96;17.91113;934.6086;;;;
2022/04/12 08:52:41;;;;;;;3;1.3;;;;;;;27.2;19.68262;934.6373;;;;
2022/04/12 08:55:15;;;;;;;1.9;1;;;;;;;27.88;18.10938;934.6142;;;;
2022/04/12 08:57:49;;;;;;;2.7;1;;;;;;;29.96;18.7666;934.6208;;;;
2022/04/12 09:00:22;;;;;;;1;0.9;;;;;;;29.33;15.85742;934.626;;;;
2022/04/12 09:02:59;;;;;;;0.8;0.8;;;;;;;28;17.87695;934.5812;;;;
2022/04/12 09:05:20;;;;;;;1.1;0.8;;;;;;;25.31;18.70313;934.4766;;;;
2022/04/12 09:07:50;;;;;;;1;0.8;;;;;;;26.5;19.57031;934.5901;;;;
2022/04/12 09:10:25;;;;;;;4.6;1.1;;;;;;;26.25;18.33984;934.5333;;;;
2022/04/12 09:12:46;;;;;;;2.8;1;;;;;;;27.71;18.69629;934.4536;;;;
2022/04/12 09:15:17;;;;;;;3;0.9;;;;;;;29.05;19.22852;934.4856;;;;
2022/04/12 09:17:44;;;;;;;1.2;0.8;;;;;;;30.27;17.34668;934.4996;;;;
2022/04/12 09:20:07;;;;;;;1.7;0.8;;;;;;;27.92;15.87891;934.3889;;;;
2022/04/12 09:22:37;;;;;;;3.1;1.2;;;;;;;27.11;18.03125;934.3631;;;;
2022/04/12 09:25:07;;;;;;;1.8;0.7;;;;;;;27.98;17.3418;934.3795;;;;
2022/04/12 09:27:36;;;;;;;2.1;1;;;;;;;25.98;18.12793;934.3459;;;;
2022/04/12 09:30:02;;;;;;;3.3;0.9;;;;;;;27.53;20.45703;934.2839;;;;
2022/04/12 09:32:31;;;;;;;2.4;1.2;;;;;;;27.24;17.7998;934.2222;;;;
2022/04/12 09:35:02;;;;;;;0.9;0.7;;;;;;;26.02;19.25293;934.2764;;;;
2022/04/12 09:37:31;;;;;;;1.3;1;;;;;;;26.93;18.20215;934.1856;;;;
2022/04/12 09:39:56;;;;;;;1.1;0.7;;;;;;;27.49;19.98145;934.1102;;;;
2022/04/12 09:42:26;;;;;;;1.4;1;;;;;;;26.67;20.14648;934.0787;;;;
2022/04/12 09:44:54;;;;;;;0.7;0.7;;;;;;;26.93;20.15723;934.0627;;;;
2022/04/12 09:47:23;;;;;;;0.7;0.7;;;;;;;27.93;18.66992;934.0789;;;;
2022/04/12 09:49:48;;;;;;;1.2;0.8;;;;;;;28.78;17.75391;934.1131;;;;
2022/04/12 09:52:18;;;;;;;0.8;0.8;;;;;;;28.99;16.66602;934.05;;;;
2022/04/12 09:54:44;;;;;;;0.9;0.5;;;;;;;28.71;16.73926;934.0179;;;;
2022/04/12 09:57:15;;;;;;;0.8;0.8;;;;;;;28.16;17.45605;933.9791;;;;
2022/04/12 09:59:45;;;;;;;1;0.8;;;;;;;29.5;16.16113;933.9492;;;;
2022/04/12 10:02:11;;;;;;;2;0.9;;;;;;;30.03;14.93848;933.9669;;;;
2022/04/12 10:04:41;;;;;;;2.1;1;;;;;;;30.37;15.55957;933.9465;;;;
2022/04/12 10:07:06;;;;;;;0.7;0.7;;;;;;;29.61;17.19043;933.9269;;;;
2022/04/12 10:09:31;;;;;;;1.7;0.9;;;;;;;30.24;17.92969;933.8687;;;;
2022/04/12 10:11:56;;;;;;;2.4;0.8;;;;;;;29.82;18.43848;933.8636;;;;
2022/04/12 10:14:29;;;;;;;1.2;1;;;;;;;29.31;19.14453;933.7628;;;;
2022/04/12 10:16:55;;;;;;;2.1;1;;;;;;;28.65;18.55664;933.8052;;;;
2022/04/12 10:19:21;;;;;;;0.6;0.6;;;;;;;28.44;19.22656;933.7806;;;;
2022/04/12 10:21:46;;;;;;;1.1;0.7;;;;;;;28.59;19.28027;933.7922;;;;
2022/04/12 10:24:18;;;;;;;2.5;0.7;;;;;;;28.81;20.00391;933.7344;;;;
2022/04/12 10:26:42;;;;;;;1.5;0.9;;;;;;;29.31;19.25098;933.7015;;;;
2022/04/12 10:29:10;;;;;;;1.1;0.9;;;;;;;29.95;17.84668;933.7019;;;;
2022/04/12 10:31:40;;;;;;;2.8;0.9;;;;;;;30.38;17.19531;933.6464;;;;
2022/04/12 10:34:05;;;;;;;0.8;0.8;;;;;;;30.39;16.26465;933.6453;;;;
2022/04/12 10:36:30;;;;;;;1.1;0.6;;;;;;;30.38;17.43457;933.6263;;;;
2022/04/12 10:39:03;;;;;;;1.2;0.8;;;;;;;29.7;17.24121;933.6596;;;;
2022/04/12 10:41:30;;;;;;;1.5;0.7;;;;;;;29.63;17.03613;933.5653;;;;
2022/04/12 10:43:56;;;;;;;2.4;0.7;;;;;;;29.11;18.0166;933.5472;;;;
2022/04/12 10:46:24;;;;;;;0.7;0.7;;;;;;;29.07;18.87207;933.5461;;;;
2022/04/12 10:48:49;;;;;;;1.2;0.8;;;;;;;29.14;19.18457;933.4769;;;;
2022/04/12 10:51:15;;;;;;;2.7;0.8;;;;;;;30.47;17.60547;933.5073;;;;
2022/04/12 10:53:39;;;;;;;1.1;0.6;;;;;;;31.33;16.98047;933.515;;;;
2022/04/12 10:56:04;;;;;;;1.4;0.7;;;;;;;30.89;17.70508;933.4194;;;;
2022/04/12 10:58:33;;;;;;;1.6;0.7;;;;;;;30.51;17.97656;933.4774;;;;
2022/04/12 11:00:58;;;;;;;1.2;0.6;;;;;;;30.67;17.51758;933.4053;;;;
2022/04/12 11:03:28;;;;;;;1.4;1;;;;;;;30.78;19.99512;933.3734;;;;
2022/04/12 11:05:53;;;;;;;0.9;0.8;;;;;;;31.18;19.31934;933.3986;;;;
2022/04/12 11:08:21;;;;;;;1.7;1;;;;;;;31.78;17.54785;933.4072;;;;
2022/04/12 11:10:46;;;;;;;3.1;0.9;;;;;;;31.6;18.2002;933.3923;;;;
2022/04/12 11:13:16;;;;;;;3.7;1.1;;;;;;;30.94;19.91895;933.3931;;;;
2022/04/12 11:15:44;;;;;;;2;0.7;;;;;;;31.55;18.73633;933.3586;;;;
2022/04/12 11:18:12;;;;;;;2;0.9;;;;;;;31.06;19.42188;933.3639;;;;
2022/04/12 11:20:37;;;;;;;2;0.7;;;;;;;30.96;19.78809;933.3803;;;;
2022/04/12 11:23:04;;;;;;;1.9;0.8;;;;;;;30.59;19.78418;933.3649;;;;
2022/04/12 11:25:35;;;;;;;2.5;0.8;;;;;;;30.58;19.52051;933.3546;;;;
2022/04/12 11:28:01;;;;;;;2;1;;;;;;;30.19;19.34863;933.3983;;;;
2022/04/12 11:30:26;;;;;;;2;0.9;;;;;;;30.37;19.53516;933.3663;;;;
2022/04/12 11:32:51;;;;;;;2.8;1.4;;;;;;;29.3;21.52637;933.3636;;;;
2022/04/12 11:35:17;;;;;;;1.2;0.9;;;;;;;29.07;21.02832;933.3414;;;;
2022/04/12 11:37:44;;;;;;;2.5;1;;;;;;;29.14;21.2334;933.322;;;;
2022/04/12 11:40:17;;;;;;;3.6;0.9;;;;;;;28.59;22.4209;933.3535;;;;
2022/04/12 11:42:46;;;;;;;1.8;0.8;;;;;;;28.66;21.66211;933.3345;;;;
2022/04/12 11:45:17;;;;;;;1.9;1.1;;;;;;;28.93;21.80664;933.3105;;;;
2022/04/12 11:47:44;;;;;;;0.9;0.7;;;;;;;28.56;23.0498;933.2464;;;;
2022/04/12 11:50:07;;;;;;;2;1;;;;;;;28.95;22.67578;933.314;;;;
2022/04/12 11:52:33;;;;;;;1.7;1;;;;;;;29.16;22.90137;933.2795;;;;
2022/04/12 11:55:01;;;;;;;2.3;1;;;;;;;29.33;22.54004;933.2313;;;;
2022/04/12 11:57:26;;;;;;;1.4;0.9;;;;;;;29.76;22.44336;933.2178;;;;
2022/04/12 11:59:53;;;;;;;1.6;1.1;;;;;;;29.3;22.86133;933.2084;;;;
2022/04/12 12:02:18;;;;;;;6.8;1.1;;;;;;;29.58;22.85156;933.1675;;;;
2022/04/12 12:04:46;;;;;;;3.9;1.2;;;;;;;30.07;21.64746;933.2556;;;;
2022/04/12 12:07:11;;;;;;;1;0.9;;;;;;;31.15;19.49707;933.252;;;;
2022/04/12 12:09:40;;;;;;;1.1;0.8;;;;;;;31.1;21.27734;933.1922;;;;
2022/04/12 12:12:05;;;;;;;1;0.7;;;;;;;31.27;21.03418;933.1834;;;;
2022/04/12 12:14:34;;;;;;;2.9;1.1;;;;;;;30.73;20.94922;933.0831;;;;
2022/04/12 12:16:59;;;;;;;2.8;1;;;;;;;29.83;23.2334;933.1381;;;;
2022/04/12 12:19:27;;;;;;;2;0.8;;;;;;;30.21;21.2832;933.1231;;;;
2022/04/12 12:21:53;;;;;;;1.5;0.9;;;;;;;30.17;22.21289;933.1301;;;;
2022/04/12 12:24:21;;;;;;;0.9;0.8;;;;;;;30.42;21.41309;933.0694;;;;
2022/04/12 12:26:46;;;;;;;2.3;0.8;;;;;;;30.03;22.74219;932.9551;;;;
2022/04/12 12:29:17;;;;;;;3.3;1;;;;;;;29.7;23.03613;932.9919;;;;
2022/04/12 12:31:44;;;;;;;1.8;1.2;;;;;;;29.05;22.87207;933.0458;;;;
2022/04/12 12:34:14;;;;;;;3.6;1;;;;;;;29.72;22.45313;933.0162;;;;
2022/04/12 12:36:44;;;;;;;1.6;1;;;;;;;29.7;22.01074;933.0165;;;;
2022/04/12 12:39:09;;;;;;;1.5;0.9;;;;;;;29.53;23.12305;932.9802;;;;
2022/04/12 12:41:37;;;;;;;1.4;1.1;;;;;;;30.33;21.65918;932.9847;;;;
2022/04/12 12:44:03;;;;;;;1.8;0.8;;;;;;;30.74;21.23633;932.9899;;;;
2022/04/12 12:46:33;;;;;;;2.7;0.7;;;;;;;30.19;22.10547;932.9877;;;;
2022/04/12 12:48:56;;;;;;;2.1;0.8;;;;;;;29.11;22.33887;932.9224;;;;
2022/04/12 12:51:26;;;;;;;0.9;0.7;;;;;;;29.24;22.19043;932.9355;;;;
2022/04/12 12:53:51;;;;;;;0.9;0.7;;;;;;;29.6;20.6709;932.863;;;;
2022/04/12 12:56:18;;;;;;;1.8;0.6;;;;;;;29.34;21.64746;932.9272;;;;
2022/04/12 12:58:43;;;;;;;1.1;0.7;;;;;;;28.89;22.70898;932.887;;;;
2022/04/12 13:01:15;;;;;;;1.2;1;;;;;;;28.37;23.26563;932.9202;;;;
2022/04/12 13:03:38;;;;;;;1.8;0.8;;;;;;;27.91;23.53809;932.949;;;;
2022/04/12 13:06:03;;;;;;;1.7;0.8;;;;;;;28.31;24;932.9374;;;;
2022/04/12 13:08:36;;;;;;;1.3;1;;;;;;;27.75;24.78809;932.8142;;;;
2022/04/12 13:11:03;;;;;;;2;0.9;;;;;;;27.44;24.67676;932.8752;;;;
2022/04/12 13:13:33;;;;;;;2.6;1;;;;;;;27.08;24.30176;932.7472;;;;
2022/04/12 13:16:08;;;;;;;0.8;0.8;;;;;;;26.96;24.48438;932.7395;;;;
2022/04/12 13:18:33;;;;;;;0.8;0.8;;;;;;;26.44;26.34961;932.6735;;;;
2022/04/12 13:21:03;;;;;;;1.6;0.9;;;;;;;26.01;25.47363;932.6796;;;;
2022/04/12 13:23:27;;;;;;;1.1;0.9;;;;;;;26.09;27.15723;932.6699;;;;
2022/04/12 13:25:54;;;;;;;3.2;0.9;;;;;;;26.13;25.89355;932.5903;;;;
2022/04/12 13:28:19;;;;;;;1.1;0.9;;;;;;;25.6;27.57715;932.635;;;;
2022/04/12 13:30:51;;;;;;;2.6;0.9;;;;;;;25.29;27.53418;932.5542;;;;
2022/04/12 13:33:14;;;;;;;2.6;0.9;;;;;;;25.37;28.37695;932.5453;;;;
2022/04/12 13:35:45;;;;;;;1.6;1.1;;;;;;;25.38;27.49316;932.5269;;;;
2022/04/12 13:38:16;;;;;;;1.8;0.9;;;;;;;25.37;27.81055;932.4785;;;;
2022/04/12 13:40:41;;;;;;;2.1;0.8;;;;;;;25.4;27.5293;932.4263;;;;
2022/04/12 13:43:13;;;;;;;1.2;0.9;;;;;;;25.31;27.11035;932.4885;;;;
2022/04/12 13:45:40;;;;;;;1.1;0.8;;;;;;;25.1;28.84375;932.4448;;;;
2022/04/12 13:48:04;;;;;;;1.1;0.8;;;;;;;25.17;27.88086;932.4073;;;;
2022/04/12 13:50:28;;;;;;;6.9;1.5;;;;;;;24.89;28.97266;932.3621;;;;
2022/04/12 13:52:57;;;;;;;2.1;1.2;;;;;;;24.34;30.64453;932.3405;;;;
2022/04/12 13:55:28;;;;;;;1.7;1;;;;;;;24.31;28.79297;932.4098;;;;
2022/04/12 13:57:53;;;;;;;2.5;0.9;;;;;;;24.37;28.34961;932.3505;;;;
2022/04/12 14:00:23;;;;;;;1.7;1;;;;;;;24.5;29.0293;932.3903;;;;
2022/04/12 14:02:46;;;;;;;13.1;1.9;;;;;;;24.57;28.63281;932.3906;;;;
2022/04/12 14:05:12;;;;;;;1;0.9;;;;;;;24.55;27.83008;932.3312;;;;
2022/04/12 14:07:39;;;;;;;1.5;1;;;;;;;24.46;30.09961;932.3359;;;;
2022/04/12 14:10:15;;;;;;;2.3;0.8;;;;;;;24.3;28.99316;932.3036;;;;
2022/04/12 14:12:42;;;;;;;1.1;0.9;;;;;;;24.07;28.94336;932.3384;;;;
2022/04/12 14:15:17;;;;;;;2;0.9;;;;;;;24.14;28.3584;932.3845;;;;
2022/04/12 14:17:45;;;;;;;1.7;0.9;;;;;;;24.08;28.94336;932.3063;;;;
2022/04/12 14:20:20;;;;;;;1.9;0.8;;;;;;;24.2;27.98535;932.3953;;;;
2022/04/12 14:22:47;;;;;;;2.6;0.6;;;;;;;24.21;27.66797;932.4322;;;;
2022/04/12 14:25:12;;;;;;;1.5;0.8;;;;;;;24.29;27.99023;932.3897;;;;
2022/04/12 14:27:41;;;;;;;1.7;1;;;;;;;24.14;28.6875;932.3798;;;;
2022/04/12 14:30:06;;;;;;;1;0.9;;;;;;;23.9;29.00195;932.3887;;;;
2022/04/12 14:32:34;;;;;;;2.5;0.9;;;;;;;23.53;28.80176;932.3999;;;;
2022/04/12 14:35:07;;;;;;;1.3;0.9;;;;;;;23.52;28.90723;932.4736;;;;
2022/04/12 14:37:37;;;;;;;1.6;1;;;;;;;23.37;28.75586;932.4562;;;;
2022/04/12 14:40:06;;;;;;;1.3;0.8;;;;;;;23.29;28.59863;932.4621;;;;
2022/04/12 14:42:31;;;;;;;1.9;1.1;;;;;;;23.09;29.88965;932.4851;;;;
2022/04/12 14:44:59;;;;;;;3.4;1.2;;;;;;;23.11;29.69043;932.4853;;;;
2022/04/12 14:47:24;;;;;;;2.6;1.1;;;;;;;23.14;30.0332;932.4495;;;;
2022/04/12 14:49:52;;;;;;;2.3;1.1;;;;;;;23.01;29.58984;932.4288;;;;
2022/04/12 14:52:18;;;;;;;2.2;1.1;;;;;;;22.93;29.83203;932.4559;;;;
2022/04/12 14:54:46;;;;;;;2.4;1.1;;;;;;;22.8;30.46875;932.4551;;;;
2022/04/12 14:57:12;;;;;;;1.9;0.9;;;;;;;22.71;30.28613;932.5341;;;;
2022/04/12 14:59:41;;;;;;;2.2;1.1;;;;;;;22.78;30.52637;932.5446;;;;
2022/04/12 15:02:13;;;;;;;1.2;1;;;;;;;22.72;30.40527;932.5642;;;;
2022/04/12 15:04:38;;;;;;;1.7;1.2;;;;;;;22.73;30.1709;932.5475;;;;
2022/04/12 15:07:04;;;;;;;1.7;0.9;;;;;;;22.9;29.54785;932.5323;;;;
2022/04/12 15:09:29;;;;;;;1.9;1;;;;;;;22.97;29.68164;932.6078;;;;
2022/04/12 15:11:55;;;;;;;1.3;1.1;;;;;;;23.02;28.92188;932.6058;;;;
2022/04/12 15:14:19;;;;;;;1.7;1;;;;;;;23.03;30.19043;932.6195;;;;
2022/04/12 15:16:48;;;;;;;2.2;1;;;;;;;22.95;29.55078;932.568;;;;